sensor_id;sensor_type;location;lat;lon;timestamp;pressure;altitude;pressure_sealevel;temperature;humidity
17362;BME280;8798;51.938;4.348;2023-01-29T00:01:32;103174.25;;;6.76;72.00
17362;BME280;8798;51.938;4.348;2023-01-29T00:04:00;103164.47;;;6.75;71.66
17362;BME280;8798;51.938;4.348;2023-01-29T00:06:28;103163.63;;;6.74;70.53
17362;BME280;8798;51.938;4.348;2023-01-29T00:08:56;103156.56;;;6.73;71.09
17362;BME280;8798;51.938;4.348;2023-01-29T00:11:25;103154.81;;;6.72;71.56
17362;BME280;8798;51.938;4.348;2023-01-29T00:13:53;103155.69;;;6.73;71.85
17362;BME280;8798;51.938;4.348;2023-01-29T00:16:21;103155.69;;;6.73;71.80
17362;BME280;8798;51.938;4.348;2023-01-29T00:18:49;103159.22;;;6.73;71.36
17362;BME280;8798;51.938;4.348;2023-01-29T00:21:18;103160.09;;;6.74;71.76
17362;BME280;8798;51.938;4.348;2023-01-29T00:23:47;103153.03;;;6.73;71.56
17362;BME280;8798;51.938;4.348;2023-01-29T00:26:16;103153.03;;;6.73;71.81
17362;BME280;8798;51.938;4.348;2023-01-29T00:28:45;103154.81;;;6.72;71.47
17362;BME280;8798;51.938;4.348;2023-01-29T00:31:15;103152.13;;;6.72;71.13
17362;BME280;8798;51.938;4.348;2023-01-29T00:33:43;103147.75;;;6.71;71.30
17362;BME280;8798;51.938;4.348;2023-01-29T00:36:13;103148.59;;;6.72;72.05
17362;BME280;8798;51.938;4.348;2023-01-29T00:38:41;103151.22;;;6.73;72.05
17362;BME280;8798;51.938;4.348;2023-01-29T00:41:11;103157.38;;;6.75;71.46
17362;BME280;8798;51.938;4.348;2023-01-29T00:43:58;103154.69;;;6.75;70.91
17362;BME280;8798;51.938;4.348;2023-01-29T00:46:44;103154.69;;;6.75;71.37
17362;BME280;8798;51.938;4.348;2023-01-29T00:49:12;103155.59;;;6.74;71.98
17362;BME280;8798;51.938;4.348;2023-01-29T00:51:40;103149.34;;;6.75;71.17
17362;BME280;8798;51.938;4.348;2023-01-29T00:54:08;103151.13;;;6.75;72.08
17362;BME280;8798;51.938;4.348;2023-01-29T00:56:36;103140.53;;;6.73;72.13
17362;BME280;8798;51.938;4.348;2023-01-29T00:59:05;103143.19;;;6.73;71.11
17362;BME280;8798;51.938;4.348;2023-01-29T01:01:33;103144.94;;;6.74;71.85
17362;BME280;8798;51.938;4.348;2023-01-29T01:04:18;103147.59;;;6.74;71.74
17362;BME280;8798;51.938;4.348;2023-01-29T01:06:46;103144.06;;;6.74;71.56
17362;BME280;8798;51.938;4.348;2023-01-29T01:09:13;103130.78;;;6.72;71.52
17362;BME280;8798;51.938;4.348;2023-01-29T01:11:59;103128.25;;;6.69;71.72
17362;BME280;8798;51.938;4.348;2023-01-29T01:14:28;103123.75;;;6.70;71.14
17362;BME280;8798;51.938;4.348;2023-01-29T01:16:56;103121.03;;;6.71;71.52
17362;BME280;8798;51.938;4.348;2023-01-29T01:19:24;103110.50;;;6.68;72.02
17362;BME280;8798;51.938;4.348;2023-01-29T01:21:51;103116.75;;;6.67;71.25
17362;BME280;8798;51.938;4.348;2023-01-29T01:24:19;103113.22;;;6.66;72.15
17362;BME280;8798;51.938;4.348;2023-01-29T01:26:48;103105.22;;;6.66;71.32
17362;BME280;8798;51.938;4.348;2023-01-29T01:29:16;103097.25;;;6.65;71.13
17362;BME280;8798;51.938;4.348;2023-01-29T01:31:45;103098.22;;;6.64;72.13
17362;BME280;8798;51.938;4.348;2023-01-29T01:34:13;103092.88;;;6.64;71.66
17362;BME280;8798;51.938;4.348;2023-01-29T01:36:41;103088.41;;;6.64;72.28
17362;BME280;8798;51.938;4.348;2023-01-29T01:39:09;103107.03;;;6.66;71.43
17362;BME280;8798;51.938;4.348;2023-01-29T01:41:37;103095.50;;;6.65;72.31
17362;BME280;8798;51.938;4.348;2023-01-29T01:44:05;103099.94;;;6.65;71.70
17362;BME280;8798;51.938;4.348;2023-01-29T01:46:35;103098.06;;;6.67;71.56
17362;BME280;8798;51.938;4.348;2023-01-29T01:49:13;103103.41;;;6.67;72.49
17362;BME280;8798;51.938;4.348;2023-01-29T01:51:45;103104.34;;;6.66;72.13
17362;BME280;8798;51.938;4.348;2023-01-29T01:54:17;103090.25;;;6.62;71.77
17362;BME280;8798;51.938;4.348;2023-01-29T01:56:49;103087.59;;;6.62;71.50
17362;BME280;8798;51.938;4.348;2023-01-29T01:59:22;103084.91;;;6.62;72.00
17362;BME280;8798;51.938;4.348;2023-01-29T02:01:52;103083.19;;;6.61;71.48
17362;BME280;8798;51.938;4.348;2023-01-29T02:04:24;103088.53;;;6.61;71.89
17362;BME280;8798;51.938;4.348;2023-01-29T02:07:13;103071.66;;;6.61;72.17
17362;BME280;8798;51.938;4.348;2023-01-29T02:10:02;103075.25;;;6.60;72.14
17362;BME280;8798;51.938;4.348;2023-01-29T02:12:33;103080.59;;;6.60;71.10
17362;BME280;8798;51.938;4.348;2023-01-29T02:15:01;103084.91;;;6.62;71.68
17362;BME280;8798;51.938;4.348;2023-01-29T02:17:28;103089.34;;;6.63;71.89
17362;BME280;8798;51.938;4.348;2023-01-29T02:20:04;103087.53;;;6.64;72.28
17362;BME280;8798;51.938;4.348;2023-01-29T02:25:58;103078.81;;;6.60;71.73
17362;BME280;8798;51.938;4.348;2023-01-29T02:28:42;103069.91;;;6.60;72.08
17362;BME280;8798;51.938;4.348;2023-01-29T02:31:23;103073.53;;;6.59;71.74
17362;BME280;8798;51.938;4.348;2023-01-29T02:34:02;103063.81;;;6.58;71.72
17362;BME280;8798;51.938;4.348;2023-01-29T02:36:39;103063.81;;;6.58;71.56
17362;BME280;8798;51.938;4.348;2023-01-29T02:39:15;103063.81;;;6.58;72.52
17362;BME280;8798;51.938;4.348;2023-01-29T02:41:52;103065.53;;;6.59;71.53
17362;BME280;8798;51.938;4.348;2023-01-29T02:44:29;103069.91;;;6.60;72.38
17362;BME280;8798;51.938;4.348;2023-01-29T02:47:03;103070.81;;;6.60;72.24
17362;BME280;8798;51.938;4.348;2023-01-29T02:49:35;103074.34;;;6.61;72.20
17362;BME280;8798;51.938;4.348;2023-01-29T02:52:12;103075.19;;;6.61;71.88
17362;BME280;8798;51.938;4.348;2023-01-29T02:54:45;103086.66;;;6.63;71.94
17362;BME280;8798;51.938;4.348;2023-01-29T02:57:17;103083.16;;;6.63;72.27
17362;BME280;8798;51.938;4.348;2023-01-29T02:59:55;103100.81;;;6.65;71.63
17362;BME280;8798;51.938;4.348;2023-01-29T03:02:29;103096.34;;;6.66;72.41
17362;BME280;8798;51.938;4.348;2023-01-29T03:05:02;103096.34;;;6.66;71.52
17362;BME280;8798;51.938;4.348;2023-01-29T03:07:36;103101.59;;;6.67;72.36
17362;BME280;8798;51.938;4.348;2023-01-29T03:10:15;103093.69;;;6.66;71.36
17362;BME280;8798;51.938;4.348;2023-01-29T03:12:46;103097.16;;;6.68;71.66
17362;BME280;8798;51.938;4.348;2023-01-29T03:15:21;103102.41;;;6.70;72.85
17362;BME280;8798;51.938;4.348;2023-01-29T03:17:55;103102.41;;;6.70;71.63
17362;BME280;8798;51.938;4.348;2023-01-29T03:20:25;103100.69;;;6.68;71.75
17362;BME280;8798;51.938;4.348;2023-01-29T03:23:01;103094.47;;;6.68;72.29
17362;BME280;8798;51.938;4.348;2023-01-29T03:25:33;103091.88;;;6.66;71.72
17362;BME280;8798;51.938;4.348;2023-01-29T03:28:20;103091.88;;;6.66;72.79
17362;BME280;8798;51.938;4.348;2023-01-29T03:31:10;103083.91;;;6.65;71.84
17362;BME280;8798;51.938;4.348;2023-01-29T03:33:59;103067.19;;;6.61;72.14
17362;BME280;8798;51.938;4.348;2023-01-29T03:36:33;103073.38;;;6.62;71.19
17362;BME280;8798;51.938;4.348;2023-01-29T03:39:05;103056.56;;;6.60;72.65
17362;BME280;8798;51.938;4.348;2023-01-29T03:41:36;103053.03;;;6.59;71.91
17362;BME280;8798;51.938;4.348;2023-01-29T03:44:12;103052.16;;;6.59;71.04
17362;BME280;8798;51.938;4.348;2023-01-29T03:46:47;103054.84;;;6.59;71.98
17362;BME280;8798;51.938;4.348;2023-01-29T03:49:23;103047.78;;;6.58;72.16
17362;BME280;8798;51.938;4.348;2023-01-29T03:52:00;103056.66;;;6.58;72.23
17362;BME280;8798;51.938;4.348;2023-01-29T03:54:35;103053.03;;;6.59;72.43
17362;BME280;8798;51.938;4.348;2023-01-29T03:57:12;103059.22;;;6.60;71.76
17362;BME280;8798;51.938;4.348;2023-01-29T03:59:47;103050.44;;;6.58;71.46
17362;BME280;8798;51.938;4.348;2023-01-29T04:02:21;103046.88;;;6.57;71.62
17362;BME280;8798;51.938;4.348;2023-01-29T04:04:56;103047.78;;;6.58;71.80
17362;BME280;8798;51.938;4.348;2023-01-29T04:07:27;103034.50;;;6.56;72.46
17362;BME280;8798;51.938;4.348;2023-01-29T04:10:02;103038.97;;;6.56;71.93
17362;BME280;8798;51.938;4.348;2023-01-29T04:12:37;103028.28;;;6.56;71.68
17362;BME280;8798;51.938;4.348;2023-01-29T04:15:10;103038.00;;;6.57;71.94
17362;BME280;8798;51.938;4.348;2023-01-29T04:17:44;103043.34;;;6.57;72.53
17362;BME280;8798;51.938;4.348;2023-01-29T04:20:15;103039.81;;;6.56;72.57
17362;BME280;8798;51.938;4.348;2023-01-29T04:22:45;103033.53;;;6.57;72.59
17362;BME280;8798;51.938;4.348;2023-01-29T04:25:15;103038.81;;;6.59;71.64
17362;BME280;8798;51.938;4.348;2023-01-29T04:27:50;103047.78;;;6.58;71.75
17362;BME280;8798;51.938;4.348;2023-01-29T04:30:27;103043.22;;;6.60;71.63
17362;BME280;8798;51.938;4.348;2023-01-29T04:33:10;103042.44;;;6.58;71.61
17362;BME280;8798;51.938;4.348;2023-01-29T04:35:50;103024.66;;;6.57;71.76
17362;BME280;8798;51.938;4.348;2023-01-29T04:38:28;103030.09;;;6.55;72.34
17362;BME280;8798;51.938;4.348;2023-01-29T04:41:03;103025.63;;;6.56;71.35
17362;BME280;8798;51.938;4.348;2023-01-29T04:43:38;103019.47;;;6.54;71.90
17362;BME280;8798;51.938;4.348;2023-01-29T04:46:12;103021.19;;;6.55;72.26
17362;BME280;8798;51.938;4.348;2023-01-29T04:48:52;103020.34;;;6.54;72.12
17362;BME280;8798;51.938;4.348;2023-01-29T04:51:36;103020.28;;;6.56;72.07
17362;BME280;8798;51.938;4.348;2023-01-29T04:54:13;103018.53;;;6.55;72.21
17362;BME280;8798;51.938;4.348;2023-01-29T04:56:54;103015.84;;;6.55;72.19
17362;BME280;8798;51.938;4.348;2023-01-29T04:59:28;103007.03;;;6.53;71.81
17362;BME280;8798;51.938;4.348;2023-01-29T05:01:58;103009.72;;;6.53;71.15
17362;BME280;8798;51.938;4.348;2023-01-29T05:04:32;103001.72;;;6.53;71.98
17362;BME280;8798;51.938;4.348;2023-01-29T05:07:02;103012.38;;;6.53;72.39
17362;BME280;8798;51.938;4.348;2023-01-29T05:09:32;103016.81;;;6.54;72.35
17362;BME280;8798;51.938;4.348;2023-01-29T05:12:01;103015.94;;;6.53;71.76
17362;BME280;8798;51.938;4.348;2023-01-29T05:14:31;103022.94;;;6.56;72.16
17362;BME280;8798;51.938;4.348;2023-01-29T05:17:04;103028.19;;;6.57;71.94
17362;BME280;8798;51.938;4.348;2023-01-29T05:19:36;103019.41;;;6.55;72.14
17362;BME280;8798;51.938;4.348;2023-01-29T05:22:05;103014.09;;;6.55;71.73
17362;BME280;8798;51.938;4.348;2023-01-29T05:24:36;103005.19;;;6.55;71.56
17362;BME280;8798;51.938;4.348;2023-01-29T05:27:03;103015.81;;;6.56;72.06
17362;BME280;8798;51.938;4.348;2023-01-29T05:29:49;103021.94;;;6.58;71.83
17362;BME280;8798;51.938;4.348;2023-01-29T05:32:16;103021.00;;;6.59;72.26
17362;BME280;8798;51.938;4.348;2023-01-29T05:34:46;103032.53;;;6.60;71.14
17362;BME280;8798;51.938;4.348;2023-01-29T05:37:13;103034.19;;;6.62;72.17
17362;BME280;8798;51.938;4.348;2023-01-29T05:39:41;103037.75;;;6.63;71.44
17362;BME280;8798;51.938;4.348;2023-01-29T05:42:09;103027.97;;;6.62;71.65
17362;BME280;8798;51.938;4.348;2023-01-29T05:44:37;103027.97;;;6.62;72.50
17362;BME280;8798;51.938;4.348;2023-01-29T05:47:05;103018.25;;;6.61;71.55
17362;BME280;8798;51.938;4.348;2023-01-29T05:49:32;103022.75;;;6.60;72.22
17362;BME280;8798;51.938;4.348;2023-01-29T05:52:04;103023.59;;;6.61;71.66
17362;BME280;8798;51.938;4.348;2023-01-29T05:54:31;103025.31;;;6.62;72.19
17362;BME280;8798;51.938;4.348;2023-01-29T05:56:59;103019.13;;;6.61;71.81
17362;BME280;8798;51.938;4.348;2023-01-29T05:59:27;103017.41;;;6.60;72.76
17362;BME280;8798;51.938;4.348;2023-01-29T06:01:56;103011.09;;;6.61;71.59
17362;BME280;8798;51.938;4.348;2023-01-29T06:04:24;103013.84;;;6.60;72.00
17362;BME280;8798;51.938;4.348;2023-01-29T06:06:52;103004.09;;;6.59;71.72
17362;BME280;8798;51.938;4.348;2023-01-29T06:09:21;103005.81;;;6.60;71.21
17362;BME280;8798;51.938;4.348;2023-01-29T06:11:49;103011.16;;;6.60;71.46
17362;BME280;8798;51.938;4.348;2023-01-29T06:14:16;103011.16;;;6.60;71.78
17362;BME280;8798;51.938;4.348;2023-01-29T06:16:44;103004.97;;;6.59;71.00
17362;BME280;8798;51.938;4.348;2023-01-29T06:19:12;102999.63;;;6.59;72.33
17362;BME280;8798;51.938;4.348;2023-01-29T06:21:40;102991.75;;;6.56;72.09
17362;BME280;8798;51.938;4.348;2023-01-29T06:24:07;102988.25;;;6.56;71.05
17362;BME280;8798;51.938;4.348;2023-01-29T06:26:37;102989.09;;;6.56;71.27
17362;BME280;8798;51.938;4.348;2023-01-29T06:29:05;102986.50;;;6.55;71.52
17362;BME280;8798;51.938;4.348;2023-01-29T06:31:32;102976.69;;;6.55;71.39
17362;BME280;8798;51.938;4.348;2023-01-29T06:34:05;102988.25;;;6.56;71.54
17362;BME280;8798;51.938;4.348;2023-01-29T06:36:34;102990.81;;;6.57;71.35
17362;BME280;8798;51.938;4.348;2023-01-29T06:39:03;102987.28;;;6.57;71.48
17362;BME280;8798;51.938;4.348;2023-01-29T06:41:31;102987.28;;;6.57;71.79
17362;BME280;8798;51.938;4.348;2023-01-29T06:44:00;102989.03;;;6.58;72.39
17362;BME280;8798;51.938;4.348;2023-01-29T06:46:28;102991.72;;;6.58;72.40
17362;BME280;8798;51.938;4.348;2023-01-29T06:48:57;102978.34;;;6.58;72.51
17362;BME280;8798;51.938;4.348;2023-01-29T06:51:26;102981.03;;;6.58;71.78
17362;BME280;8798;51.938;4.348;2023-01-29T06:53:53;102969.47;;;6.57;71.85
17362;BME280;8798;51.938;4.348;2023-01-29T06:56:22;102990.69;;;6.60;72.03
17362;BME280;8798;51.938;4.348;2023-01-29T06:58:50;102996.81;;;6.62;72.25
17362;BME280;8798;51.938;4.348;2023-01-29T07:01:19;102995.03;;;6.63;71.85
17362;BME280;8798;51.938;4.348;2023-01-29T07:04:01;103000.38;;;6.63;72.20
17362;BME280;8798;51.938;4.348;2023-01-29T07:06:32;102992.41;;;6.61;72.14
17362;BME280;8798;51.938;4.348;2023-01-29T07:09:00;102988.88;;;6.61;72.12
17362;BME280;8798;51.938;4.348;2023-01-29T07:11:28;102981.78;;;6.60;71.26
17362;BME280;8798;51.938;4.348;2023-01-29T07:13:56;102977.41;;;6.59;71.46
17362;BME280;8798;51.938;4.348;2023-01-29T07:16:25;102973.94;;;6.57;71.27
17362;BME280;8798;51.938;4.348;2023-01-29T07:18:53;102958.88;;;6.56;71.19
17362;BME280;8798;51.938;4.348;2023-01-29T07:21:21;102966.03;;;6.55;71.55
17362;BME280;8798;51.938;4.348;2023-01-29T07:23:49;102958.00;;;6.55;72.59
17362;BME280;8798;51.938;4.348;2023-01-29T07:26:17;102962.34;;;6.58;72.16
17362;BME280;8798;51.938;4.348;2023-01-29T07:28:44;102965.94;;;6.57;71.38
17362;BME280;8798;51.938;4.348;2023-01-29T07:31:13;102960.59;;;6.57;71.92
17362;BME280;8798;51.938;4.348;2023-01-29T07:33:43;102964.13;;;6.57;72.17
17362;BME280;8798;51.938;4.348;2023-01-29T07:36:11;102964.06;;;6.59;72.41
17362;BME280;8798;51.938;4.348;2023-01-29T07:38:39;102961.38;;;6.59;71.96
17362;BME280;8798;51.938;4.348;2023-01-29T07:41:10;102966.72;;;6.59;71.45
17362;BME280;8798;51.938;4.348;2023-01-29T07:43:41;102962.34;;;6.58;72.02
17362;BME280;8798;51.938;4.348;2023-01-29T07:46:11;102961.44;;;6.57;72.30
17362;BME280;8798;51.938;4.348;2023-01-29T07:48:39;102952.69;;;6.55;71.46
17362;BME280;8798;51.938;4.348;2023-01-29T07:51:08;102941.19;;;6.53;71.65
17362;BME280;8798;51.938;4.348;2023-01-29T07:53:36;102945.59;;;6.54;70.93
17362;BME280;8798;51.938;4.348;2023-01-29T07:56:04;102941.09;;;6.55;71.67
17362;BME280;8798;51.938;4.348;2023-01-29T07:58:32;102946.44;;;6.55;70.85
17362;BME280;8798;51.938;4.348;2023-01-29T08:01:04;102950.84;;;6.56;71.24
17362;BME280;8798;51.938;4.348;2023-01-29T08:03:32;102945.53;;;6.56;71.36
17362;BME280;8798;51.938;4.348;2023-01-29T08:06:00;102944.66;;;6.55;72.30
17362;BME280;8798;51.938;4.348;2023-01-29T08:08:29;102951.66;;;6.58;72.37
17362;BME280;8798;51.938;4.348;2023-01-29T08:10:59;102947.25;;;6.57;71.53
17362;BME280;8798;51.938;4.348;2023-01-29T08:13:28;102946.31;;;6.58;72.00
17362;BME280;8798;51.938;4.348;2023-01-29T08:15:58;102945.44;;;6.57;71.79
17362;BME280;8798;51.938;4.348;2023-01-29T08:18:26;102951.66;;;6.58;72.29
17362;BME280;8798;51.938;4.348;2023-01-29T08:20:58;102944.56;;;6.57;71.68
17362;BME280;8798;51.938;4.348;2023-01-29T08:23:26;102952.50;;;6.58;71.60
17362;BME280;8798;51.938;4.348;2023-01-29T08:25:55;102950.72;;;6.59;71.91
17362;BME280;8798;51.938;4.348;2023-01-29T08:28:23;102960.38;;;6.61;71.48
17362;BME280;8798;51.938;4.348;2023-01-29T08:30:51;102970.09;;;6.62;71.12
17362;BME280;8798;51.938;4.348;2023-01-29T08:33:19;102958.56;;;6.62;71.23
17362;BME280;8798;51.938;4.348;2023-01-29T08:35:58;102948.03;;;6.59;72.00
17362;BME280;8798;51.938;4.348;2023-01-29T08:38:26;102943.66;;;6.58;71.40
17362;BME280;8798;51.938;4.348;2023-01-29T08:40:55;102933.88;;;6.57;71.06
17362;BME280;8798;51.938;4.348;2023-01-29T08:43:23;102927.69;;;6.56;71.70
17362;BME280;8798;51.938;4.348;2023-01-29T08:45:51;102942.75;;;6.57;71.78
17362;BME280;8798;51.938;4.348;2023-01-29T08:48:19;102942.63;;;6.60;71.45
17362;BME280;8798;51.938;4.348;2023-01-29T08:50:47;102959.34;;;6.64;71.10
17362;BME280;8798;51.938;4.348;2023-01-29T08:53:15;102974.31;;;6.68;71.30
17362;BME280;8798;51.938;4.348;2023-01-29T08:55:45;102986.56;;;6.72;71.55
17362;BME280;8798;51.938;4.348;2023-01-29T08:58:14;103001.56;;;6.75;72.54
17362;BME280;8798;51.938;4.348;2023-01-29T09:00:42;102985.63;;;6.73;70.99
17362;BME280;8798;51.938;4.348;2023-01-29T09:03:10;102991.84;;;6.74;72.12
17362;BME280;8798;51.938;4.348;2023-01-29T09:05:39;103004.22;;;6.75;72.71
17362;BME280;8798;51.938;4.348;2023-01-29T09:08:08;102999.69;;;6.77;72.04
17362;BME280;8798;51.938;4.348;2023-01-29T09:10:35;103011.16;;;6.79;72.00
17362;BME280;8798;51.938;4.348;2023-01-29T09:13:03;102995.31;;;6.76;71.69
17362;BME280;8798;51.938;4.348;2023-01-29T09:15:32;102997.13;;;6.75;72.18
17362;BME280;8798;51.938;4.348;2023-01-29T09:18:02;102995.31;;;6.76;72.47
17362;BME280;8798;51.938;4.348;2023-01-29T09:20:31;102987.28;;;6.76;72.03
17362;BME280;8798;51.938;4.348;2023-01-29T09:23:03;102976.66;;;6.74;71.80
17362;BME280;8798;51.938;4.348;2023-01-29T09:25:31;102984.69;;;6.74;72.51
17362;BME280;8798;51.938;4.348;2023-01-29T09:27:59;102979.28;;;6.76;72.06
17362;BME280;8798;51.938;4.348;2023-01-29T09:30:26;102980.13;;;6.76;71.93
17362;BME280;8798;51.938;4.348;2023-01-29T09:32:58;102981.94;;;6.76;71.86
17362;BME280;8798;51.938;4.348;2023-01-29T09:35:26;102979.28;;;6.76;72.31
17362;BME280;8798;51.938;4.348;2023-01-29T09:37:54;102981.84;;;6.77;72.07
17362;BME280;8798;51.938;4.348;2023-01-29T09:40:24;102989.81;;;6.79;71.41
17362;BME280;8798;51.938;4.348;2023-01-29T09:42:56;102984.47;;;6.79;72.13
17362;BME280;8798;51.938;4.348;2023-01-29T09:45:28;102983.59;;;6.78;71.83
17362;BME280;8798;51.938;4.348;2023-01-29T09:48:00;102984.47;;;6.79;71.35
17362;BME280;8798;51.938;4.348;2023-01-29T09:50:30;102975.59;;;6.78;71.47
17362;BME280;8798;51.938;4.348;2023-01-29T09:53:04;102964.13;;;6.76;71.33
17362;BME280;8798;51.938;4.348;2023-01-29T09:55:40;102963.25;;;6.76;72.12
17362;BME280;8798;51.938;4.348;2023-01-29T09:58:13;102962.25;;;6.78;71.99
17362;BME280;8798;51.938;4.348;2023-01-29T10:00:51;102971.97;;;6.79;71.80
17362;BME280;8798;51.938;4.348;2023-01-29T10:03:34;102981.63;;;6.82;71.10
17362;BME280;8798;51.938;4.348;2023-01-29T10:06:20;102978.97;;;6.82;71.46
17362;BME280;8798;51.938;4.348;2023-01-29T10:09:04;102973.63;;;6.82;71.15
17362;BME280;8798;51.938;4.348;2023-01-29T10:11:43;102976.28;;;6.82;71.92
17362;BME280;8798;51.938;4.348;2023-01-29T10:14:18;102974.41;;;6.84;72.51
17362;BME280;8798;51.938;4.348;2023-01-29T10:17:01;102983.22;;;6.86;71.89
17362;BME280;8798;51.938;4.348;2023-01-29T10:19:50;102977.94;;;6.84;71.89
17362;BME280;8798;51.938;4.348;2023-01-29T10:22:40;102984.94;;;6.87;72.66
17362;BME280;8798;51.938;4.348;2023-01-29T10:25:13;102990.22;;;6.88;71.45
17362;BME280;8798;51.938;4.348;2023-01-29T10:27:46;102998.94;;;6.92;72.23
17362;BME280;8798;51.938;4.348;2023-01-29T10:30:28;103006.91;;;6.94;72.10
17362;BME280;8798;51.938;4.348;2023-01-29T10:33:01;103013.97;;;6.95;71.69
17362;BME280;8798;51.938;4.348;2023-01-29T10:35:33;103011.16;;;6.98;72.06
17362;BME280;8798;51.938;4.348;2023-01-29T10:38:17;103015.56;;;6.99;71.53
17362;BME280;8798;51.938;4.348;2023-01-29T10:40:54;103015.56;;;6.99;71.41
17362;BME280;8798;51.938;4.348;2023-01-29T10:43:29;103013.75;;;6.99;72.46
17362;BME280;8798;51.938;4.348;2023-01-29T10:46:07;103015.50;;;7.00;72.36
17362;BME280;8798;51.938;4.348;2023-01-29T10:48:44;103030.50;;;7.03;71.62
17362;BME280;8798;51.938;4.348;2023-01-29T10:51:27;103035.69;;;7.06;71.70
17362;BME280;8798;51.938;4.348;2023-01-29T10:54:12;103042.69;;;7.08;71.42
17362;BME280;8798;51.938;4.348;2023-01-29T10:56:52;103025.00;;;7.06;71.99
17362;BME280;8798;51.938;4.348;2023-01-29T10:59:36;103028.47;;;7.08;71.90
17362;BME280;8798;51.938;4.348;2023-01-29T11:02:13;103030.28;;;7.07;72.71
17362;BME280;8798;51.938;4.348;2023-01-29T11:04:42;103022.28;;;7.07;71.96
17362;BME280;8798;51.938;4.348;2023-01-29T11:07:12;103022.28;;;7.07;72.09
17362;BME280;8798;51.938;4.348;2023-01-29T11:09:43;103019.59;;;7.07;72.17
17362;BME280;8798;51.938;4.348;2023-01-29T11:12:16;103016.94;;;7.07;71.99
17362;BME280;8798;51.938;4.348;2023-01-29T11:14:50;103017.69;;;7.09;72.39
17362;BME280;8798;51.938;4.348;2023-01-29T11:17:20;103018.59;;;7.10;72.12
17362;BME280;8798;51.938;4.348;2023-01-29T11:19:50;103022.97;;;7.11;71.83
17362;BME280;8798;51.938;4.348;2023-01-29T11:22:20;103009.56;;;7.13;72.12
17362;BME280;8798;51.938;4.348;2023-01-29T11:25:06;103011.28;;;7.14;72.18
17362;BME280;8798;51.938;4.348;2023-01-29T11:27:41;103018.44;;;7.13;72.17
17362;BME280;8798;51.938;4.348;2023-01-29T11:30:14;103019.22;;;7.15;71.72
17362;BME280;8798;51.938;4.348;2023-01-29T11:32:49;103024.47;;;7.17;71.34
17362;BME280;8798;51.938;4.348;2023-01-29T11:35:22;103032.44;;;7.18;72.73
17362;BME280;8798;51.938;4.348;2023-01-29T11:38:06;103028.03;;;7.17;72.15
17362;BME280;8798;51.938;4.348;2023-01-29T11:40:37;103020.88;;;7.18;72.13
17362;BME280;8798;51.938;4.348;2023-01-29T11:43:21;103032.22;;;7.23;71.81
17362;BME280;8798;51.938;4.348;2023-01-29T11:45:50;103036.53;;;7.25;71.72
17362;BME280;8798;51.938;4.348;2023-01-29T11:48:21;103025.03;;;7.23;71.62
17362;BME280;8798;51.938;4.348;2023-01-29T11:50:54;103017.97;;;7.22;72.70
17362;BME280;8798;51.938;4.348;2023-01-29T11:53:32;103015.31;;;7.22;71.88
17362;BME280;8798;51.938;4.348;2023-01-29T11:56:03;103017.03;;;7.23;71.67
17362;BME280;8798;51.938;4.348;2023-01-29T11:58:34;103001.94;;;7.22;72.24
17362;BME280;8798;51.938;4.348;2023-01-29T12:01:03;103006.34;;;7.23;72.69
17362;BME280;8798;51.938;4.348;2023-01-29T12:03:33;103025.69;;;7.28;72.58
17362;BME280;8798;51.938;4.348;2023-01-29T12:06:05;103021.19;;;7.29;71.70
17362;BME280;8798;51.938;4.348;2023-01-29T12:08:36;103009.66;;;7.28;72.46
17362;BME280;8798;51.938;4.348;2023-01-29T12:11:10;103004.28;;;7.28;72.09
17362;BME280;8798;51.938;4.348;2023-01-29T12:13:40;103020.28;;;7.30;72.32
17362;BME280;8798;51.938;4.348;2023-01-29T12:16:17;103025.41;;;7.35;72.17
17362;BME280;8798;51.938;4.348;2023-01-29T12:18:50;103044.75;;;7.40;71.79
17362;BME280;8798;51.938;4.348;2023-01-29T12:21:25;103052.53;;;7.44;72.72
17362;BME280;8798;51.938;4.348;2023-01-29T12:24:01;103078.09;;;7.50;71.90
17362;BME280;8798;51.938;4.348;2023-01-29T12:26:32;103080.63;;;7.53;71.84
17362;BME280;8798;51.938;4.348;2023-01-29T12:29:14;103073.44;;;7.53;71.70
17362;BME280;8798;51.938;4.348;2023-01-29T12:31:48;103072.44;;;7.56;72.37
17362;BME280;8798;51.938;4.348;2023-01-29T12:34:23;103080.31;;;7.59;71.67
17362;BME280;8798;51.938;4.348;2023-01-29T12:36:58;103090.84;;;7.62;72.26
17362;BME280;8798;51.938;4.348;2023-01-29T12:39:28;103084.56;;;7.63;72.02
17362;BME280;8798;51.938;4.348;2023-01-29T12:42:01;103072.19;;;7.61;72.11
17362;BME280;8798;51.938;4.348;2023-01-29T12:44:35;103057.19;;;7.58;72.49
17362;BME280;8798;51.938;4.348;2023-01-29T12:47:13;103051.81;;;7.58;72.24
17362;BME280;8798;51.938;4.348;2023-01-29T12:49:48;103035.00;;;7.56;72.19
17362;BME280;8798;51.938;4.348;2023-01-29T12:52:21;103028.78;;;7.56;72.38
17362;BME280;8798;51.938;4.348;2023-01-29T12:54:55;103034.94;;;7.58;71.84
17362;BME280;8798;51.938;4.348;2023-01-29T12:57:35;103019.81;;;7.57;72.56
17362;BME280;8798;51.938;4.348;2023-01-29T13:00:09;103017.91;;;7.59;71.97
17362;BME280;8798;51.938;4.348;2023-01-29T13:02:46;103025.88;;;7.60;72.62
17362;BME280;8798;51.938;4.348;2023-01-29T13:05:20;103018.72;;;7.61;72.58
17362;BME280;8798;51.938;4.348;2023-01-29T13:07:55;103019.56;;;7.61;72.37
17362;BME280;8798;51.938;4.348;2023-01-29T13:10:28;103029.19;;;7.65;72.16
17362;BME280;8798;51.938;4.348;2023-01-29T13:13:00;103043.19;;;7.70;71.49
17362;BME280;8798;51.938;4.348;2023-01-29T13:15:32;103050.13;;;7.74;71.46
17362;BME280;8798;51.938;4.348;2023-01-29T13:18:22;103065.94;;;7.79;72.63
17362;BME280;8798;51.938;4.348;2023-01-29T13:20:58;103061.34;;;7.81;72.18
17362;BME280;8798;51.938;4.348;2023-01-29T13:23:31;103065.69;;;7.84;72.21
17362;BME280;8798;51.938;4.348;2023-01-29T13:26:02;103062.94;;;7.85;72.30
17362;BME280;8798;51.938;4.348;2023-01-29T13:28:31;103067.25;;;7.88;71.56
17362;BME280;8798;51.938;4.348;2023-01-29T13:31:11;103077.78;;;7.91;72.50
17362;BME280;8798;51.938;4.348;2023-01-29T13:33:41;103082.06;;;7.95;72.06
17362;BME280;8798;51.938;4.348;2023-01-29T13:36:15;103082.00;;;7.96;72.08
17362;BME280;8798;51.938;4.348;2023-01-29T13:38:45;103078.28;;;7.99;72.55
17362;BME280;8798;51.938;4.348;2023-01-29T13:41:14;103096.78;;;8.04;71.76